createdAt,value
2022-10-07T00:00:12.869Z,12.40
2022-10-07T00:02:36.440Z,11.83
2022-10-07T00:04:59.960Z,14.05
2022-10-07T00:07:23.772Z,13.60
2022-10-07T00:09:47.253Z,16.00
2022-10-07T00:12:12.428Z,13.32
2022-10-07T00:14:35.945Z,15.18
2022-10-07T00:16:59.548Z,16.15
2022-10-07T00:19:23.087Z,13.40
2022-10-07T00:21:47.189Z,11.60
2022-10-07T00:24:11.506Z,17.30
2022-10-07T00:26:37.095Z,16.38
2022-10-07T00:29:03.182Z,15.40
2022-10-07T00:31:29.582Z,12.07
2022-10-07T00:33:53.729Z,12.27
2022-10-07T00:36:20.760Z,19.27
2022-10-07T00:38:44.586Z,11.90
2022-10-07T00:41:10.302Z,12.53
2022-10-07T00:43:34.974Z,11.50
2022-10-07T00:46:08.464Z,13.70
2022-10-07T00:48:36.147Z,13.68
2022-10-07T00:51:02.246Z,12.18
2022-10-07T00:53:29.973Z,11.65
2022-10-07T00:55:53.700Z,13.57
2022-10-07T00:58:19.345Z,14.27
2022-10-07T01:00:43.915Z,14.63
2022-10-07T01:03:09.684Z,13.05
2022-10-07T01:05:33.621Z,14.73
2022-10-07T01:07:59.350Z,13.07
2022-10-07T01:10:24.432Z,12.55
2022-10-07T01:13:03.974Z,13.35
2022-10-07T01:15:37.268Z,14.95
2022-10-07T01:18:15.785Z,12.38
2022-10-07T01:20:45.356Z,15.10
2022-10-07T01:23:39.048Z,11.17
2022-10-07T01:26:44.979Z,14.17
2022-10-07T01:29:14.854Z,11.57
2022-10-07T01:31:44.004Z,11.70
2022-10-07T01:34:09.683Z,14.57
2022-10-07T01:36:37.081Z,12.87
2022-10-07T01:39:09.599Z,12.43
2022-10-07T01:41:35.620Z,11.80
2022-10-07T01:44:00.867Z,10.80
2022-10-07T01:46:27.332Z,13.10
2022-10-07T01:48:54.979Z,14.13
2022-10-07T01:51:22.084Z,9.27
2022-10-07T01:53:58.650Z,18.70
2022-10-07T01:56:43.706Z,12.10
2022-10-07T01:59:59.214Z,11.75
2022-10-07T02:02:35.285Z,13.60
2022-10-07T02:05:12.859Z,11.85
2022-10-07T02:07:47.482Z,12.60
2022-10-07T02:10:19.171Z,12.20
2022-10-07T02:12:48.550Z,14.98
2022-10-07T02:15:20.066Z,13.82
2022-10-07T02:17:50.060Z,11.53
2022-10-07T02:20:15.385Z,13.27
2022-10-07T02:22:42.472Z,9.80
2022-10-07T02:25:08.128Z,12.20
2022-10-07T02:27:36.555Z,9.43
2022-10-07T02:30:07.505Z,12.13
2022-10-07T02:32:33.240Z,10.83
2022-10-07T02:35:03.189Z,12.60
2022-10-07T02:37:33.251Z,9.07
2022-10-07T02:39:58.375Z,11.03
2022-10-07T02:42:29.359Z,9.80
2022-10-07T02:44:57.903Z,14.33
2022-10-07T02:47:29.882Z,12.50
2022-10-07T02:49:55.035Z,12.18
2022-10-07T02:52:21.572Z,16.00
2022-10-07T02:54:50.539Z,14.03
2022-10-07T02:57:18.847Z,9.97
2022-10-07T02:59:45.663Z,14.97
2022-10-07T03:02:18.438Z,17.70
2022-10-07T03:04:43.818Z,12.07
2022-10-07T03:07:07.635Z,11.47
2022-10-07T03:09:33.155Z,13.87
2022-10-07T03:11:56.930Z,12.40
2022-10-07T03:14:20.524Z,13.67
2022-10-07T03:16:44.400Z,17.07
2022-10-07T03:19:08.004Z,12.47
2022-10-07T03:21:41.311Z,12.90
2022-10-07T03:24:06.237Z,12.73
2022-10-07T03:26:38.920Z,15.52
2022-10-07T03:29:02.738Z,12.73
2022-10-07T03:31:27.726Z,13.83
2022-10-07T03:33:55.347Z,14.20
2022-10-07T03:36:19.398Z,18.92
2022-10-07T03:38:45.703Z,16.83
2022-10-07T03:41:09.886Z,19.87
2022-10-07T03:43:34.605Z,15.00
2022-10-07T03:46:02.505Z,10.67
2022-10-07T03:48:28.443Z,17.00
2022-10-07T03:50:52.996Z,13.40
2022-10-07T03:53:18.963Z,17.67
2022-10-07T03:55:43.978Z,10.30
2022-10-07T03:58:07.749Z,12.95
2022-10-07T04:00:31.291Z,15.67
2022-10-07T04:02:55.727Z,24.77
2022-10-07T04:05:22.015Z,15.73
2022-10-07T04:07:46.634Z,13.43
2022-10-07T04:10:13.642Z,10.93
2022-10-07T04:12:39.198Z,17.30
2022-10-07T04:15:03.294Z,18.35
2022-10-07T04:17:27.232Z,12.30
2022-10-07T04:19:50.787Z,14.43
2022-10-07T04:22:14.556Z,10.90
2022-10-07T04:24:38.240Z,14.53
2022-10-07T04:27:01.894Z,14.80
2022-10-07T04:29:27.151Z,17.83
2022-10-07T04:31:50.868Z,15.67
2022-10-07T04:34:14.999Z,12.93
2022-10-07T04:36:39.498Z,13.90
2022-10-07T04:39:11.994Z,11.77
2022-10-07T04:41:42.974Z,14.70
2022-10-07T04:44:12.167Z,20.23
2022-10-07T04:46:44.879Z,15.30
2022-10-07T04:49:11.193Z,14.93
2022-10-07T04:51:34.914Z,10.23
2022-10-07T04:53:59.240Z,16.53
2022-10-07T04:56:31.254Z,14.73
2022-10-07T04:58:55.983Z,14.97
2022-10-07T05:01:20.262Z,12.20
2022-10-07T05:03:46.084Z,14.40
2022-10-07T05:06:10.558Z,15.77
2022-10-07T05:08:36.711Z,13.80
2022-10-07T05:11:02.859Z,15.83
2022-10-07T05:13:34.331Z,16.30
2022-10-07T05:16:01.064Z,13.97
2022-10-07T05:18:27.100Z,16.53
2022-10-07T05:20:55.071Z,13.33
2022-10-07T05:23:27.847Z,12.73
2022-10-07T05:26:00.381Z,14.27
2022-10-07T05:28:25.605Z,15.53
2022-10-07T05:30:49.215Z,14.33
2022-10-07T05:33:12.805Z,11.77
2022-10-07T05:35:36.950Z,11.13
2022-10-07T05:38:02.143Z,14.30
2022-10-07T05:40:26.380Z,15.23
2022-10-07T05:42:50.042Z,13.93
2022-10-07T05:45:14.047Z,21.30
2022-10-07T05:47:38.024Z,14.70
2022-10-07T05:50:02.208Z,15.17
2022-10-07T05:52:25.953Z,21.67
2022-10-07T05:54:51.889Z,19.43
2022-10-07T05:57:15.703Z,20.97
2022-10-07T05:59:39.441Z,18.43
2022-10-07T06:02:03.163Z,14.83
2022-10-07T06:04:29.456Z,13.03
2022-10-07T06:06:53.280Z,17.73
2022-10-07T06:09:34.028Z,15.43
2022-10-07T06:12:21.850Z,20.23
2022-10-07T06:14:47.458Z,16.13
2022-10-07T06:17:11.012Z,15.23
2022-10-07T06:19:38.398Z,18.93
2022-10-07T06:22:02.621Z,19.07
2022-10-07T06:24:27.236Z,20.67
2022-10-07T06:26:51.321Z,16.17
2022-10-07T06:29:16.560Z,23.77
2022-10-07T06:31:40.676Z,38.67
2022-10-07T06:34:04.734Z,107.17
2022-10-07T06:36:30.255Z,15.73
2022-10-07T06:38:56.335Z,13.00
2022-10-07T06:41:26.064Z,14.18
2022-10-07T06:44:02.078Z,17.55
2022-10-07T06:46:27.246Z,23.45
2022-10-07T06:48:52.030Z,14.73
2022-10-07T06:51:18.238Z,12.50
2022-10-07T06:53:43.368Z,11.95
2022-10-07T06:56:09.055Z,13.63
2022-10-07T06:58:34.462Z,13.70
2022-10-07T07:01:01.172Z,19.20
2022-10-07T07:03:27.589Z,16.25
2022-10-07T07:05:54.526Z,12.48
2022-10-07T07:08:21.283Z,18.40
2022-10-07T07:10:46.305Z,13.40
2022-10-07T07:13:11.097Z,17.98
2022-10-07T07:15:35.150Z,20.50
2022-10-07T07:17:59.180Z,22.23
2022-10-07T07:20:24.225Z,18.83
2022-10-07T07:22:47.729Z,19.33
2022-10-07T07:25:12.125Z,18.55
2022-10-07T07:27:36.004Z,17.73
2022-10-07T07:30:01.015Z,23.42
2022-10-07T07:32:24.823Z,20.58
2022-10-07T07:34:49.366Z,13.65
2022-10-07T07:37:20.064Z,18.27
2022-10-07T07:39:47.595Z,24.17
2022-10-07T07:42:14.130Z,18.92
2022-10-07T07:44:39.196Z,14.02
2022-10-07T07:47:07.735Z,20.48
2022-10-07T07:49:32.308Z,16.00
2022-10-07T07:51:56.199Z,17.35
2022-10-07T07:54:27.282Z,15.95
2022-10-07T07:56:51.175Z,17.42
2022-10-07T07:59:16.696Z,16.38
2022-10-07T08:01:40.887Z,17.60
2022-10-07T08:04:05.784Z,15.25
2022-10-07T08:06:31.524Z,14.07
2022-10-07T08:08:58.577Z,15.27
2022-10-07T08:11:25.555Z,12.77
2022-10-07T08:13:49.677Z,10.88
2022-10-07T08:16:18.202Z,11.60
2022-10-07T08:18:44.247Z,17.05
2022-10-07T08:21:09.273Z,11.20
2022-10-07T08:23:34.111Z,8.98
2022-10-07T08:25:58.535Z,9.55
2022-10-07T08:28:24.388Z,10.70
2022-10-07T08:30:51.150Z,14.88
2022-10-07T08:33:15.182Z,10.13
2022-10-07T08:35:38.926Z,13.02
2022-10-07T08:38:02.451Z,10.23
2022-10-07T08:40:26.047Z,12.98
2022-10-07T08:42:49.648Z,8.02
2022-10-07T08:45:24.058Z,15.10
2022-10-07T08:47:50.122Z,12.77
2022-10-07T08:50:19.690Z,11.02
2022-10-07T08:52:51.071Z,14.10
2022-10-07T08:55:22.591Z,9.65
2022-10-07T08:58:04.372Z,9.88
2022-10-07T09:00:29.466Z,7.57
2022-10-07T09:03:25.084Z,14.00
2022-10-07T09:05:51.251Z,12.13
2022-10-07T09:08:21.202Z,9.30
2022-10-07T09:10:49.639Z,11.73
2022-10-07T09:13:17.173Z,8.45
2022-10-07T09:16:01.262Z,10.50
2022-10-07T09:18:31.948Z,12.07
2022-10-07T09:20:57.489Z,9.38
2022-10-07T09:23:25.219Z,9.73
2022-10-07T09:25:48.867Z,9.02
2022-10-07T09:28:19.419Z,6.78
2022-10-07T09:30:43.560Z,9.65
2022-10-07T09:33:16.214Z,10.85
2022-10-07T09:35:39.899Z,6.88
2022-10-07T09:38:08.125Z,10.02
2022-10-07T09:40:58.969Z,6.30
2022-10-07T09:43:22.597Z,6.18
2022-10-07T09:45:48.126Z,8.45
2022-10-07T09:48:22.028Z,9.40
2022-10-07T09:50:46.810Z,5.18
2022-10-07T09:53:21.422Z,5.45
2022-10-07T09:55:45.608Z,9.88
2022-10-07T09:58:20.499Z,11.70
2022-10-07T10:00:46.543Z,8.77
2022-10-07T10:03:10.340Z,6.35
2022-10-07T10:05:38.109Z,7.22
2022-10-07T10:08:05.478Z,5.50
2022-10-07T10:10:31.737Z,5.82
2022-10-07T10:12:57.651Z,8.25
2022-10-07T10:15:29.586Z,7.30
2022-10-07T10:17:54.805Z,6.43
2022-10-07T10:20:30.988Z,4.60
2022-10-07T10:22:56.757Z,8.10
2022-10-07T10:25:48.446Z,10.00
2022-10-07T10:28:24.242Z,5.57
2022-10-07T10:30:58.379Z,6.57
2022-10-07T10:33:27.666Z,7.05
2022-10-07T10:35:58.531Z,9.15
2022-10-07T10:38:39.955Z,6.03
2022-10-07T10:41:12.628Z,4.82
2022-10-07T10:43:56.265Z,5.63
2022-10-07T10:46:34.726Z,6.63
2022-10-07T10:49:11.810Z,7.65
2022-10-07T10:51:53.273Z,5.82
2022-10-07T10:54:31.323Z,5.72
2022-10-07T10:57:02.198Z,10.55
2022-10-07T10:59:55.258Z,7.10
2022-10-07T11:02:59.384Z,6.88
2022-10-07T11:05:26.457Z,6.82
2022-10-07T11:07:55.288Z,6.78
2022-10-07T11:10:24.166Z,5.75
2022-10-07T11:12:54.690Z,8.40
2022-10-07T11:15:25.515Z,8.15
2022-10-07T11:17:52.008Z,5.30
2022-10-07T11:20:22.544Z,10.07
2022-10-07T11:22:53.529Z,8.77
2022-10-07T11:25:30.114Z,7.03
2022-10-07T11:28:00.961Z,4.80
2022-10-07T11:30:26.066Z,4.15
2022-10-07T11:32:56.081Z,10.02
2022-10-07T11:35:27.577Z,4.50
2022-10-07T11:38:01.128Z,9.82
2022-10-07T11:40:29.628Z,6.80
2022-10-07T11:42:57.624Z,7.80
2022-10-07T11:45:25.534Z,5.28
2022-10-07T11:47:55.506Z,6.68
2022-10-07T11:50:22.731Z,7.07
2022-10-07T11:52:49.432Z,6.30
2022-10-07T11:55:24.159Z,7.18
2022-10-07T11:57:54.864Z,6.93
2022-10-07T12:00:27.440Z,5.95
2022-10-07T12:02:51.345Z,8.52
2022-10-07T12:05:58.919Z,6.65
2022-10-07T12:08:39.160Z,7.25
2022-10-07T12:11:47.948Z,6.32
2022-10-07T12:14:43.176Z,8.00
2022-10-07T12:17:24.062Z,6.35
2022-10-07T12:19:47.788Z,6.30
2022-10-07T12:22:20.417Z,8.10
2022-10-07T12:24:47.718Z,7.13
2022-10-07T12:27:17.357Z,8.23
2022-10-07T12:29:59.789Z,5.43
2022-10-07T12:33:00.447Z,5.13
2022-10-07T12:35:54.307Z,9.18
2022-10-07T12:38:27.804Z,6.03
2022-10-07T12:41:02.692Z,7.57
2022-10-07T12:43:38.639Z,8.02
2022-10-07T12:46:08.749Z,5.78
2022-10-07T12:48:38.668Z,4.55
2022-10-07T12:51:04.896Z,5.85
2022-10-07T12:53:30.670Z,4.05
2022-10-07T12:55:57.492Z,4.70
2022-10-07T12:59:12.240Z,5.70
2022-10-07T13:02:01.156Z,6.95
2022-10-07T13:04:51.335Z,8.10
2022-10-07T13:08:02.312Z,6.65
2022-10-07T13:10:54.647Z,7.90
2022-10-07T13:13:24.978Z,8.32
2022-10-07T13:15:56.592Z,6.45
2022-10-07T13:18:28.391Z,6.45
2022-10-07T13:21:08.983Z,7.22
2022-10-07T13:23:33.160Z,6.22
2022-10-07T13:25:59.715Z,4.00
2022-10-07T13:28:25.787Z,6.13
2022-10-07T13:30:50.430Z,4.82
2022-10-07T13:33:19.042Z,4.65
2022-10-07T13:35:44.130Z,4.72
2022-10-07T13:38:07.671Z,4.85
2022-10-07T13:40:35.601Z,4.10
2022-10-07T13:43:02.378Z,5.57
2022-10-07T13:45:26.400Z,6.53
2022-10-07T13:47:50.686Z,6.03
2022-10-07T13:50:20.908Z,5.88
2022-10-07T13:52:49.069Z,4.47
2022-10-07T13:55:22.190Z,6.93
2022-10-07T13:57:46.288Z,7.18
2022-10-07T14:00:14.229Z,6.00
2022-10-07T14:02:40.409Z,11.90
2022-10-07T14:05:07.282Z,6.65
2022-10-07T14:07:30.979Z,5.57
2022-10-07T14:10:09.653Z,6.40
2022-10-07T14:12:37.419Z,7.13
2022-10-07T14:15:06.336Z,7.78
2022-10-07T14:17:41.581Z,5.70
2022-10-07T14:20:19.097Z,5.70
2022-10-07T14:22:44.064Z,8.35
2022-10-07T14:25:20.490Z,6.90
2022-10-07T14:28:07.766Z,6.32
2022-10-07T14:30:56.102Z,6.78
2022-10-07T14:33:44.573Z,4.90
2022-10-07T14:36:14.190Z,6.97
2022-10-07T14:38:37.832Z,5.03
2022-10-07T14:41:02.902Z,7.38
2022-10-07T14:43:26.736Z,6.60
2022-10-07T14:45:50.305Z,6.65
2022-10-07T14:48:15.525Z,2.70
2022-10-07T14:50:39.119Z,4.10
2022-10-07T14:53:02.679Z,6.15
2022-10-07T14:55:29.305Z,3.03
2022-10-07T14:57:55.264Z,4.35
2022-10-07T15:00:21.995Z,7.43
2022-10-07T15:02:45.777Z,4.47
2022-10-07T15:05:10.858Z,3.72
2022-10-07T15:07:34.499Z,4.88
2022-10-07T15:09:58.129Z,3.78
2022-10-07T15:12:21.735Z,5.28
2022-10-07T15:14:46.711Z,7.88
2022-10-07T15:17:12.241Z,3.65
2022-10-07T15:19:35.900Z,5.25
2022-10-07T15:22:00.159Z,5.32
2022-10-07T15:24:23.848Z,7.32
2022-10-07T15:26:47.961Z,5.43
2022-10-07T15:29:13.298Z,6.00
2022-10-07T15:31:38.302Z,5.13
2022-10-07T15:34:01.821Z,5.90
2022-10-07T15:36:26.068Z,7.05
2022-10-07T15:38:49.683Z,3.88
2022-10-07T15:41:33.627Z,6.10
2022-10-07T15:43:59.215Z,4.57
2022-10-07T15:46:22.916Z,3.03
2022-10-07T15:48:47.929Z,7.28
2022-10-07T15:51:12.644Z,3.28
2022-10-07T15:53:36.211Z,5.03
2022-10-07T15:56:00.156Z,6.55
2022-10-07T15:58:25.771Z,7.80
2022-10-07T16:01:00.561Z,5.85
2022-10-07T16:03:24.327Z,6.28
2022-10-07T16:05:58.032Z,3.78
2022-10-07T16:08:21.713Z,7.78
2022-10-07T16:10:45.215Z,6.68
2022-10-07T16:13:08.793Z,5.97
2022-10-07T16:15:32.328Z,7.97
2022-10-07T16:17:55.891Z,8.48
2022-10-07T16:20:20.273Z,7.60
2022-10-07T16:22:45.478Z,4.20
2022-10-07T16:25:09.815Z,4.78
2022-10-07T16:27:47.637Z,5.22
2022-10-07T16:30:30.942Z,5.43
2022-10-07T16:32:54.559Z,4.88
2022-10-07T16:35:18.061Z,3.30
2022-10-07T16:37:41.603Z,7.70
2022-10-07T16:40:08.323Z,6.88
2022-10-07T16:42:32.334Z,5.22
2022-10-07T16:44:55.849Z,5.88
2022-10-07T16:47:19.456Z,6.32
2022-10-07T16:49:43.467Z,7.60
2022-10-07T16:52:07.015Z,6.18
2022-10-07T16:54:32.159Z,7.10
2022-10-07T16:56:57.702Z,10.35
2022-10-07T16:59:24.065Z,13.00
2022-10-07T17:01:48.897Z,21.85
2022-10-07T17:04:12.562Z,15.70
2022-10-07T17:06:36.936Z,10.00
2022-10-07T17:09:03.268Z,17.73
2022-10-07T17:11:31.294Z,17.23
2022-10-07T17:13:59.744Z,20.75
2022-10-07T17:16:24.563Z,25.70
2022-10-07T17:21:26.207Z,19.50
2022-10-07T17:23:50.267Z,25.30
2022-10-07T17:26:14.310Z,23.13
2022-10-07T17:28:38.263Z,25.60
2022-10-07T17:31:07.074Z,20.70
2022-10-07T17:33:31.168Z,19.27
2022-10-07T17:38:57.727Z,15.32
2022-10-07T17:41:28.313Z,17.58
2022-10-07T17:43:58.376Z,15.32
2022-10-07T17:46:42.574Z,14.73
2022-10-07T17:49:15.586Z,16.55
2022-10-07T17:51:42.603Z,15.93
2022-10-07T17:54:07.546Z,21.63
2022-10-07T17:56:32.529Z,19.65
2022-10-07T17:58:56.912Z,14.57
2022-10-07T18:01:27.120Z,19.45
2022-10-07T18:03:53.458Z,14.80
2022-10-07T18:06:17.537Z,15.48
2022-10-07T18:08:43.213Z,15.80
2022-10-07T18:11:06.988Z,17.42
2022-10-07T18:13:49.317Z,17.58
2022-10-07T18:16:14.083Z,26.88
2022-10-07T18:18:39.134Z,44.10
2022-10-07T18:21:07.116Z,80.82
2022-10-07T18:23:30.695Z,69.82
2022-10-07T18:25:58.109Z,71.25
2022-10-07T18:28:24.147Z,63.05
2022-10-07T18:30:47.903Z,86.05
2022-10-07T18:33:11.929Z,80.43
2022-10-07T18:35:36.916Z,66.57
2022-10-07T18:38:00.517Z,68.05
2022-10-07T18:40:24.195Z,75.57
2022-10-07T18:42:47.835Z,51.95
2022-10-07T18:45:11.962Z,58.05
2022-10-07T18:47:35.547Z,59.72
2022-10-07T18:49:59.091Z,54.65
2022-10-07T18:52:24.015Z,57.17
2022-10-07T18:54:47.528Z,42.35
2022-10-07T18:57:11.143Z,37.72
2022-10-07T18:59:34.657Z,35.53
2022-10-07T19:01:58.367Z,27.80
2022-10-07T19:04:22.082Z,35.60
2022-10-07T19:06:46.248Z,32.80
2022-10-07T19:09:15.495Z,29.30
2022-10-07T19:11:39.064Z,31.40
2022-10-07T19:14:02.041Z,28.23
2022-10-07T19:16:28.423Z,28.80
2022-10-07T19:18:54.947Z,28.55
2022-10-07T19:21:20.004Z,25.67
2022-10-07T19:23:43.691Z,28.45
2022-10-07T19:26:10.012Z,30.63
2022-10-07T19:28:35.653Z,34.67
2022-10-07T19:30:59.579Z,33.40
2022-10-07T19:33:24.083Z,33.75
2022-10-07T19:35:54.617Z,31.67
2022-10-07T19:38:18.158Z,30.27
2022-10-07T19:40:44.271Z,34.30
2022-10-07T19:43:10.759Z,38.17
2022-10-07T19:45:35.512Z,35.17
2022-10-07T19:47:59.144Z,29.90
2022-10-07T19:50:22.752Z,35.42
2022-10-07T19:52:46.747Z,39.55
2022-10-07T19:55:11.036Z,43.20
2022-10-07T19:57:34.563Z,42.28
2022-10-07T19:59:59.499Z,46.45
2022-10-07T20:02:23.138Z,44.97
2022-10-07T20:04:46.756Z,57.72
2022-10-07T20:07:10.295Z,59.67
2022-10-07T20:09:34.250Z,54.92
2022-10-07T20:11:57.771Z,53.35
2022-10-07T20:14:21.308Z,50.03
2022-10-07T20:16:46.367Z,50.35
2022-10-07T20:19:15.680Z,49.38
2022-10-07T20:21:40.355Z,48.22
2022-10-07T20:24:04.776Z,43.25
2022-10-07T20:26:31.320Z,43.22
2022-10-07T20:28:57.522Z,42.25
2022-10-07T20:31:23.489Z,39.08
2022-10-07T20:33:50.751Z,42.65
2022-10-07T20:36:16.613Z,37.63
2022-10-07T20:38:58.571Z,43.42
2022-10-07T20:41:39.831Z,42.05
2022-10-07T20:44:03.447Z,41.15
2022-10-07T20:46:27.007Z,52.05
2022-10-07T20:48:54.579Z,43.78
2022-10-07T20:51:18.207Z,41.15
2022-10-07T20:53:41.803Z,37.75
2022-10-07T20:56:05.438Z,42.50
2022-10-07T20:58:32.380Z,35.80
2022-10-07T21:00:57.278Z,38.10
2022-10-07T21:03:22.933Z,42.85
2022-10-07T21:05:47.826Z,41.08
2022-10-07T21:08:11.400Z,39.58
2022-10-07T21:10:35.035Z,40.53
2022-10-07T21:12:58.628Z,44.25
2022-10-07T21:15:22.192Z,54.92
2022-10-07T21:17:48.766Z,43.90
2022-10-07T21:20:12.375Z,53.00
2022-10-07T21:22:37.518Z,47.70
2022-10-07T21:25:01.078Z,56.70
2022-10-07T21:27:24.670Z,50.45
2022-10-07T21:29:48.852Z,54.35
2022-10-07T21:32:12.997Z,51.60
2022-10-07T21:34:36.645Z,60.95
2022-10-07T21:37:00.685Z,54.38
2022-10-07T21:39:26.537Z,62.67
2022-10-07T21:41:50.282Z,53.70
2022-10-07T21:44:15.101Z,56.88
2022-10-07T21:46:40.122Z,55.65
2022-10-07T21:49:06.131Z,55.42
2022-10-07T21:51:31.972Z,51.10
2022-10-07T21:53:58.140Z,52.05
2022-10-07T21:56:23.170Z,56.43
2022-10-07T21:58:49.315Z,52.35
2022-10-07T22:01:15.837Z,56.13
2022-10-07T22:03:39.571Z,51.97
2022-10-07T22:06:03.583Z,59.78
2022-10-07T22:08:34.983Z,54.65
2022-10-07T22:11:01.939Z,47.85
2022-10-07T22:13:26.908Z,52.83
2022-10-07T22:15:50.491Z,47.88
2022-10-07T22:18:14.314Z,51.28
2022-10-07T22:20:38.911Z,46.30
2022-10-07T22:23:02.459Z,46.92
2022-10-07T22:25:26.051Z,47.85
2022-10-07T22:27:49.931Z,50.55
2022-10-07T22:30:15.420Z,54.22
2022-10-07T22:32:38.919Z,46.67
2022-10-07T22:35:19.711Z,52.13
2022-10-07T22:37:44.962Z,52.97
2022-10-07T22:40:10.107Z,48.97
2022-10-07T22:42:35.452Z,57.50
2022-10-07T22:44:58.946Z,52.38
2022-10-07T22:47:24.896Z,55.42
2022-10-07T22:49:48.476Z,51.03
2022-10-07T22:52:12.303Z,53.65
2022-10-07T22:54:35.902Z,57.00
2022-10-07T22:56:59.897Z,54.08
2022-10-07T22:59:23.518Z,53.40
2022-10-07T23:01:47.095Z,50.95
2022-10-07T23:04:12.008Z,51.95
2022-10-07T23:06:37.008Z,49.33
2022-10-07T23:09:00.763Z,51.28
2022-10-07T23:11:26.176Z,52.67
2022-10-07T23:13:50.407Z,58.75
2022-10-07T23:16:17.161Z,48.65
2022-10-07T23:18:43.239Z,44.83
2022-10-07T23:21:11.723Z,43.37
2022-10-07T23:23:36.846Z,46.78
2022-10-07T23:26:00.984Z,46.50
2022-10-07T23:28:26.184Z,49.85
2022-10-07T23:30:49.936Z,43.47
2022-10-07T23:33:13.907Z,44.97
2022-10-07T23:35:37.523Z,42.40
2022-10-07T23:38:02.443Z,40.20
2022-10-07T23:40:26.010Z,45.50
2022-10-07T23:42:49.738Z,37.03
2022-10-07T23:45:14.509Z,40.10
2022-10-07T23:47:38.031Z,37.47
2022-10-07T23:50:01.674Z,40.30
2022-10-07T23:52:25.310Z,36.50
2022-10-07T23:54:50.323Z,45.55
2022-10-07T23:57:13.824Z,32.17
2022-10-07T23:59:37.375Z,40.42
